<?xml version="1.0" encoding="UTF-8" standalone="no" ?>
<gpx xmlns="http://www.topografix.com/GPX/1/1" xmlns:xsi="http://www.w3.org/2001/XMLSchema-instance" xsi:schemaLocation="http://www.topografix.com/GPX/1/1 http://www.topografix.com/GPX/1/1/gpx.xsd" version="1.1" creator="VisuGPX - https://www.visugpx.com">
  <metadata>
    <name>ShortCut 3</name>
    <desc><![CDATA[

Distance: 12km
Elevation gain: 239m
Max altitude: 311m
Average speed: 9.9km/h
Points: 203]]></desc>
  </metadata>
  <wpt lat="43.60766" lon="3.7104">
    <ele>152</ele>
    <name><![CDATA[Chène de Védas]]></name>
    <type><![CDATA[vue]]></type>
  </wpt>
  <trk>
    <name><![CDATA[ShortCut 3]]></name>
    <desc><![CDATA[Distance: 12km
Elevation gain: 239m
Max altitude: 311m
Average speed: 9.9km/h
Points: 203]]></desc>
    <trkseg>
      <trkpt lat="43.67959" lon="3.66091">
        <ele>217</ele>
        <time>2024-05-15T14:59:25+00:00</time>
      </trkpt>
      <trkpt lat="43.67938" lon="3.66146">
        <ele>216</ele>
        <time>2024-05-15T14:59:44+00:00</time>
      </trkpt>
      <trkpt lat="43.67831" lon="3.66191">
        <ele>216</ele>
        <time>2024-05-15T15:00:30+00:00</time>
      </trkpt>
      <trkpt lat="43.67811" lon="3.66191">
        <ele>214</ele>
        <time>2024-05-15T15:00:39+00:00</time>
      </trkpt>
      <trkpt lat="43.67789" lon="3.66212">
        <ele>212</ele>
        <time>2024-05-15T15:00:50+00:00</time>
      </trkpt>
      <trkpt lat="43.67762" lon="3.6628">
        <ele>213</ele>
        <time>2024-05-15T15:01:13+00:00</time>
      </trkpt>
      <trkpt lat="43.67758" lon="3.66352">
        <ele>217</ele>
        <time>2024-05-15T15:01:35+00:00</time>
      </trkpt>
      <trkpt lat="43.67765" lon="3.66428">
        <ele>220</ele>
        <time>2024-05-15T15:01:58+00:00</time>
      </trkpt>
      <trkpt lat="43.67765" lon="3.6643">
        <ele>220</ele>
        <time>2024-05-15T15:01:59+00:00</time>
      </trkpt>
      <trkpt lat="43.67791" lon="3.66538">
        <ele>224</ele>
        <time>2024-05-15T15:02:33+00:00</time>
      </trkpt>
      <trkpt lat="43.67788" lon="3.66732">
        <ele>235</ele>
        <time>2024-05-15T15:03:31+00:00</time>
      </trkpt>
      <trkpt lat="43.67717" lon="3.67099">
        <ele>277</ele>
        <time>2024-05-15T15:05:23+00:00</time>
      </trkpt>
      <trkpt lat="43.67677" lon="3.67336">
        <ele>293</ele>
        <time>2024-05-15T15:06:35+00:00</time>
      </trkpt>
      <trkpt lat="43.67659" lon="3.67426">
        <ele>302</ele>
        <time>2024-05-15T15:07:03+00:00</time>
      </trkpt>
      <trkpt lat="43.67648" lon="3.67443">
        <ele>303</ele>
        <time>2024-05-15T15:07:10+00:00</time>
      </trkpt>
      <trkpt lat="43.67628" lon="3.67446">
        <ele>302</ele>
        <time>2024-05-15T15:07:19+00:00</time>
      </trkpt>
      <trkpt lat="43.67595" lon="3.67522">
        <ele>299</ele>
        <time>2024-05-15T15:07:46+00:00</time>
      </trkpt>
      <trkpt lat="43.67573" lon="3.67549">
        <ele>298</ele>
        <time>2024-05-15T15:07:58+00:00</time>
      </trkpt>
      <trkpt lat="43.67563" lon="3.67589">
        <ele>298</ele>
        <time>2024-05-15T15:08:11+00:00</time>
      </trkpt>
      <trkpt lat="43.67555" lon="3.67603">
        <ele>297</ele>
        <time>2024-05-15T15:08:17+00:00</time>
      </trkpt>
      <trkpt lat="43.67453" lon="3.67703">
        <ele>295</ele>
        <time>2024-05-15T15:09:08+00:00</time>
      </trkpt>
      <trkpt lat="43.67387" lon="3.67779">
        <ele>301</ele>
        <time>2024-05-15T15:09:43+00:00</time>
      </trkpt>
      <trkpt lat="43.67374" lon="3.67789">
        <ele>304</ele>
        <time>2024-05-15T15:09:50+00:00</time>
      </trkpt>
      <trkpt lat="43.67349" lon="3.67795">
        <ele>307</ele>
        <time>2024-05-15T15:10:01+00:00</time>
      </trkpt>
      <trkpt lat="43.67323" lon="3.67812">
        <ele>309</ele>
        <time>2024-05-15T15:10:13+00:00</time>
      </trkpt>
      <trkpt lat="43.67275" lon="3.6785">
        <ele>311</ele>
        <time>2024-05-15T15:10:36+00:00</time>
      </trkpt>
      <trkpt lat="43.67231" lon="3.67864">
        <ele>307</ele>
        <time>2024-05-15T15:10:55+00:00</time>
      </trkpt>
      <trkpt lat="43.67172" lon="3.67901">
        <ele>300</ele>
        <time>2024-05-15T15:11:22+00:00</time>
      </trkpt>
      <trkpt lat="43.67117" lon="3.67957">
        <ele>291</ele>
        <time>2024-05-15T15:11:50+00:00</time>
      </trkpt>
      <trkpt lat="43.66987" lon="3.67984">
        <ele>288</ele>
        <time>2024-05-15T15:12:44+00:00</time>
      </trkpt>
      <trkpt lat="43.66908" lon="3.67977">
        <ele>288</ele>
        <time>2024-05-15T15:13:17+00:00</time>
      </trkpt>
      <trkpt lat="43.66864" lon="3.67947">
        <ele>286</ele>
        <time>2024-05-15T15:13:37+00:00</time>
      </trkpt>
      <trkpt lat="43.66783" lon="3.6792">
        <ele>285</ele>
        <time>2024-05-15T15:14:11+00:00</time>
      </trkpt>
      <trkpt lat="43.66735" lon="3.67901">
        <ele>283</ele>
        <time>2024-05-15T15:14:32+00:00</time>
      </trkpt>
      <trkpt lat="43.66549" lon="3.67923">
        <ele>268</ele>
        <time>2024-05-15T15:15:48+00:00</time>
      </trkpt>
      <trkpt lat="43.66518" lon="3.67926">
        <ele>268</ele>
        <time>2024-05-15T15:16:01+00:00</time>
      </trkpt>
      <trkpt lat="43.66502" lon="3.67923">
        <ele>269</ele>
        <time>2024-05-15T15:16:08+00:00</time>
      </trkpt>
      <trkpt lat="43.66477" lon="3.67909">
        <ele>269</ele>
        <time>2024-05-15T15:16:19+00:00</time>
      </trkpt>
      <trkpt lat="43.66452" lon="3.67883">
        <ele>268</ele>
        <time>2024-05-15T15:16:32+00:00</time>
      </trkpt>
      <trkpt lat="43.66417" lon="3.67828">
        <ele>267</ele>
        <time>2024-05-15T15:16:54+00:00</time>
      </trkpt>
      <trkpt lat="43.66392" lon="3.67813">
        <ele>267</ele>
        <time>2024-05-15T15:17:06+00:00</time>
      </trkpt>
      <trkpt lat="43.66324" lon="3.67801">
        <ele>268</ele>
        <time>2024-05-15T15:17:34+00:00</time>
      </trkpt>
      <trkpt lat="43.66293" lon="3.67781">
        <ele>270</ele>
        <time>2024-05-15T15:17:49+00:00</time>
      </trkpt>
      <trkpt lat="43.6627" lon="3.67775">
        <ele>271</ele>
        <time>2024-05-15T15:17:59+00:00</time>
      </trkpt>
      <trkpt lat="43.66205" lon="3.67783">
        <ele>272</ele>
        <time>2024-05-15T15:18:26+00:00</time>
      </trkpt>
      <trkpt lat="43.6618" lon="3.67778">
        <ele>273</ele>
        <time>2024-05-15T15:18:37+00:00</time>
      </trkpt>
      <trkpt lat="43.66134" lon="3.67761">
        <ele>272</ele>
        <time>2024-05-15T15:18:57+00:00</time>
      </trkpt>
      <trkpt lat="43.66079" lon="3.67796">
        <ele>271</ele>
        <time>2024-05-15T15:19:22+00:00</time>
      </trkpt>
      <trkpt lat="43.6604" lon="3.67796">
        <ele>270</ele>
        <time>2024-05-15T15:19:38+00:00</time>
      </trkpt>
      <trkpt lat="43.66011" lon="3.67795">
        <ele>271</ele>
        <time>2024-05-15T15:19:50+00:00</time>
      </trkpt>
      <trkpt lat="43.6597" lon="3.67752">
        <ele>274</ele>
        <time>2024-05-15T15:20:12+00:00</time>
      </trkpt>
      <trkpt lat="43.65929" lon="3.67735">
        <ele>278</ele>
        <time>2024-05-15T15:20:30+00:00</time>
      </trkpt>
      <trkpt lat="43.65867" lon="3.67742">
        <ele>281</ele>
        <time>2024-05-15T15:20:56+00:00</time>
      </trkpt>
      <trkpt lat="43.65799" lon="3.67749">
        <ele>277</ele>
        <time>2024-05-15T15:21:24+00:00</time>
      </trkpt>
      <trkpt lat="43.65698" lon="3.67784">
        <ele>271</ele>
        <time>2024-05-15T15:22:07+00:00</time>
      </trkpt>
      <trkpt lat="43.65674" lon="3.67786">
        <ele>271</ele>
        <time>2024-05-15T15:22:17+00:00</time>
      </trkpt>
      <trkpt lat="43.65596" lon="3.67758">
        <ele>276</ele>
        <time>2024-05-15T15:22:50+00:00</time>
      </trkpt>
      <trkpt lat="43.65531" lon="3.67721">
        <ele>276</ele>
        <time>2024-05-15T15:23:19+00:00</time>
      </trkpt>
      <trkpt lat="43.65457" lon="3.67714">
        <ele>270</ele>
        <time>2024-05-15T15:23:50+00:00</time>
      </trkpt>
      <trkpt lat="43.6543" lon="3.67727">
        <ele>267</ele>
        <time>2024-05-15T15:24:02+00:00</time>
      </trkpt>
      <trkpt lat="43.65362" lon="3.67786">
        <ele>262</ele>
        <time>2024-05-15T15:24:35+00:00</time>
      </trkpt>
      <trkpt lat="43.65347" lon="3.67809">
        <ele>262</ele>
        <time>2024-05-15T15:24:45+00:00</time>
      </trkpt>
      <trkpt lat="43.6534" lon="3.6781">
        <ele>261</ele>
        <time>2024-05-15T15:24:48+00:00</time>
      </trkpt>
      <trkpt lat="43.65336" lon="3.67798">
        <ele>261</ele>
        <time>2024-05-15T15:24:52+00:00</time>
      </trkpt>
      <trkpt lat="43.65323" lon="3.67813">
        <ele>260</ele>
        <time>2024-05-15T15:24:59+00:00</time>
      </trkpt>
      <trkpt lat="43.65312" lon="3.67795">
        <ele>261</ele>
        <time>2024-05-15T15:25:06+00:00</time>
      </trkpt>
      <trkpt lat="43.65311" lon="3.67785">
        <ele>261</ele>
        <time>2024-05-15T15:25:10+00:00</time>
      </trkpt>
      <trkpt lat="43.65305" lon="3.67778">
        <ele>261</ele>
        <time>2024-05-15T15:25:14+00:00</time>
      </trkpt>
      <trkpt lat="43.65292" lon="3.67778">
        <ele>263</ele>
        <time>2024-05-15T15:25:20+00:00</time>
      </trkpt>
      <trkpt lat="43.65275" lon="3.67784">
        <ele>264</ele>
        <time>2024-05-15T15:25:28+00:00</time>
      </trkpt>
      <trkpt lat="43.6526" lon="3.67781">
        <ele>266</ele>
        <time>2024-05-15T15:25:35+00:00</time>
      </trkpt>
      <trkpt lat="43.6525" lon="3.67784">
        <ele>267</ele>
        <time>2024-05-15T15:25:40+00:00</time>
      </trkpt>
      <trkpt lat="43.65235" lon="3.678">
        <ele>269</ele>
        <time>2024-05-15T15:25:48+00:00</time>
      </trkpt>
      <trkpt lat="43.65214" lon="3.67805">
        <ele>270</ele>
        <time>2024-05-15T15:25:57+00:00</time>
      </trkpt>
      <trkpt lat="43.65128" lon="3.67813">
        <ele>273</ele>
        <time>2024-05-15T15:26:32+00:00</time>
      </trkpt>
      <trkpt lat="43.6505" lon="3.67758">
        <ele>271</ele>
        <time>2024-05-15T15:27:08+00:00</time>
      </trkpt>
      <trkpt lat="43.65021" lon="3.67752">
        <ele>270</ele>
        <time>2024-05-15T15:27:20+00:00</time>
      </trkpt>
      <trkpt lat="43.64975" lon="3.67758">
        <ele>270</ele>
        <time>2024-05-15T15:27:39+00:00</time>
      </trkpt>
      <trkpt lat="43.64943" lon="3.67748">
        <ele>269</ele>
        <time>2024-05-15T15:27:53+00:00</time>
      </trkpt>
      <trkpt lat="43.64893" lon="3.67695">
        <ele>267</ele>
        <time>2024-05-15T15:28:19+00:00</time>
      </trkpt>
      <trkpt lat="43.64792" lon="3.67651">
        <ele>262</ele>
        <time>2024-05-15T15:29:02+00:00</time>
      </trkpt>
      <trkpt lat="43.64767" lon="3.67635">
        <ele>261</ele>
        <time>2024-05-15T15:29:14+00:00</time>
      </trkpt>
      <trkpt lat="43.64761" lon="3.67588">
        <ele>258</ele>
        <time>2024-05-15T15:29:29+00:00</time>
      </trkpt>
      <trkpt lat="43.64745" lon="3.67567">
        <ele>256</ele>
        <time>2024-05-15T15:29:39+00:00</time>
      </trkpt>
      <trkpt lat="43.647" lon="3.67603">
        <ele>255</ele>
        <time>2024-05-15T15:30:01+00:00</time>
      </trkpt>
      <trkpt lat="43.64441" lon="3.67668">
        <ele>263</ele>
        <time>2024-05-15T15:31:48+00:00</time>
      </trkpt>
      <trkpt lat="43.64416" lon="3.67671">
        <ele>264</ele>
        <time>2024-05-15T15:31:59+00:00</time>
      </trkpt>
      <trkpt lat="43.64374" lon="3.6767">
        <ele>267</ele>
        <time>2024-05-15T15:32:17+00:00</time>
      </trkpt>
      <trkpt lat="43.64271" lon="3.67656">
        <ele>269</ele>
        <time>2024-05-15T15:33:00+00:00</time>
      </trkpt>
      <trkpt lat="43.64176" lon="3.67617">
        <ele>267</ele>
        <time>2024-05-15T15:33:41+00:00</time>
      </trkpt>
      <trkpt lat="43.64126" lon="3.67607">
        <ele>267</ele>
        <time>2024-05-15T15:34:02+00:00</time>
      </trkpt>
      <trkpt lat="43.64047" lon="3.67607">
        <ele>266</ele>
        <time>2024-05-15T15:34:34+00:00</time>
      </trkpt>
      <trkpt lat="43.64023" lon="3.67611">
        <ele>266</ele>
        <time>2024-05-15T15:34:44+00:00</time>
      </trkpt>
      <trkpt lat="43.64004" lon="3.67624">
        <ele>265</ele>
        <time>2024-05-15T15:34:53+00:00</time>
      </trkpt>
      <trkpt lat="43.63918" lon="3.67662">
        <ele>263</ele>
        <time>2024-05-15T15:35:30+00:00</time>
      </trkpt>
      <trkpt lat="43.63898" lon="3.67662">
        <ele>264</ele>
        <time>2024-05-15T15:35:39+00:00</time>
      </trkpt>
      <trkpt lat="43.63874" lon="3.67654">
        <ele>265</ele>
        <time>2024-05-15T15:35:50+00:00</time>
      </trkpt>
      <trkpt lat="43.63833" lon="3.67626">
        <ele>267</ele>
        <time>2024-05-15T15:36:09+00:00</time>
      </trkpt>
      <trkpt lat="43.63815" lon="3.67608">
        <ele>267</ele>
        <time>2024-05-15T15:36:19+00:00</time>
      </trkpt>
      <trkpt lat="43.63799" lon="3.67577">
        <ele>267</ele>
        <time>2024-05-15T15:36:31+00:00</time>
      </trkpt>
      <trkpt lat="43.63765" lon="3.67551">
        <ele>269</ele>
        <time>2024-05-15T15:36:47+00:00</time>
      </trkpt>
      <trkpt lat="43.63753" lon="3.67538">
        <ele>270</ele>
        <time>2024-05-15T15:36:54+00:00</time>
      </trkpt>
      <trkpt lat="43.63691" lon="3.67422">
        <ele>273</ele>
        <time>2024-05-15T15:37:37+00:00</time>
      </trkpt>
      <trkpt lat="43.63625" lon="3.67366">
        <ele>274</ele>
        <time>2024-05-15T15:38:09+00:00</time>
      </trkpt>
      <trkpt lat="43.63597" lon="3.67353">
        <ele>275</ele>
        <time>2024-05-15T15:38:21+00:00</time>
      </trkpt>
      <trkpt lat="43.63557" lon="3.67348">
        <ele>278</ele>
        <time>2024-05-15T15:38:38+00:00</time>
      </trkpt>
      <trkpt lat="43.63543" lon="3.67335">
        <ele>279</ele>
        <time>2024-05-15T15:38:45+00:00</time>
      </trkpt>
      <trkpt lat="43.63486" lon="3.67226">
        <ele>283</ele>
        <time>2024-05-15T15:39:25+00:00</time>
      </trkpt>
      <trkpt lat="43.63459" lon="3.67209">
        <ele>284</ele>
        <time>2024-05-15T15:39:37+00:00</time>
      </trkpt>
      <trkpt lat="43.63408" lon="3.67198">
        <ele>283</ele>
        <time>2024-05-15T15:39:59+00:00</time>
      </trkpt>
      <trkpt lat="43.63391" lon="3.67188">
        <ele>281</ele>
        <time>2024-05-15T15:40:07+00:00</time>
      </trkpt>
      <trkpt lat="43.63383" lon="3.6716">
        <ele>279</ele>
        <time>2024-05-15T15:40:17+00:00</time>
      </trkpt>
      <trkpt lat="43.63374" lon="3.67152">
        <ele>278</ele>
        <time>2024-05-15T15:40:22+00:00</time>
      </trkpt>
      <trkpt lat="43.63364" lon="3.67155">
        <ele>277</ele>
        <time>2024-05-15T15:40:27+00:00</time>
      </trkpt>
      <trkpt lat="43.63302" lon="3.67198">
        <ele>273</ele>
        <time>2024-05-15T15:40:56+00:00</time>
      </trkpt>
      <trkpt lat="43.63236" lon="3.67218">
        <ele>266</ele>
        <time>2024-05-15T15:41:24+00:00</time>
      </trkpt>
      <trkpt lat="43.63209" lon="3.67235">
        <ele>264</ele>
        <time>2024-05-15T15:41:36+00:00</time>
      </trkpt>
      <trkpt lat="43.6319" lon="3.67242">
        <ele>262</ele>
        <time>2024-05-15T15:41:44+00:00</time>
      </trkpt>
      <trkpt lat="43.63163" lon="3.67244">
        <ele>260</ele>
        <time>2024-05-15T15:41:56+00:00</time>
      </trkpt>
      <trkpt lat="43.63129" lon="3.67256">
        <ele>255</ele>
        <time>2024-05-15T15:42:11+00:00</time>
      </trkpt>
      <trkpt lat="43.63069" lon="3.67263">
        <ele>249</ele>
        <time>2024-05-15T15:42:36+00:00</time>
      </trkpt>
      <trkpt lat="43.63057" lon="3.67279">
        <ele>247</ele>
        <time>2024-05-15T15:42:43+00:00</time>
      </trkpt>
      <trkpt lat="43.63031" lon="3.67345">
        <ele>240</ele>
        <time>2024-05-15T15:43:06+00:00</time>
      </trkpt>
      <trkpt lat="43.63038" lon="3.67376">
        <ele>237</ele>
        <time>2024-05-15T15:43:16+00:00</time>
      </trkpt>
      <trkpt lat="43.63045" lon="3.67385">
        <ele>236</ele>
        <time>2024-05-15T15:43:20+00:00</time>
      </trkpt>
      <trkpt lat="43.63066" lon="3.67395">
        <ele>236</ele>
        <time>2024-05-15T15:43:30+00:00</time>
      </trkpt>
      <trkpt lat="43.63114" lon="3.67431">
        <ele>231</ele>
        <time>2024-05-15T15:43:53+00:00</time>
      </trkpt>
      <trkpt lat="43.63125" lon="3.67447">
        <ele>230</ele>
        <time>2024-05-15T15:44:00+00:00</time>
      </trkpt>
      <trkpt lat="43.63138" lon="3.67489">
        <ele>227</ele>
        <time>2024-05-15T15:44:14+00:00</time>
      </trkpt>
      <trkpt lat="43.6314" lon="3.67534">
        <ele>224</ele>
        <time>2024-05-15T15:44:28+00:00</time>
      </trkpt>
      <trkpt lat="43.63154" lon="3.67647">
        <ele>220</ele>
        <time>2024-05-15T15:45:02+00:00</time>
      </trkpt>
      <trkpt lat="43.63165" lon="3.67821">
        <ele>207</ele>
        <time>2024-05-15T15:45:54+00:00</time>
      </trkpt>
      <trkpt lat="43.63191" lon="3.67856">
        <ele>203</ele>
        <time>2024-05-15T15:46:09+00:00</time>
      </trkpt>
      <trkpt lat="43.63194" lon="3.67874">
        <ele>201</ele>
        <time>2024-05-15T15:46:15+00:00</time>
      </trkpt>
      <trkpt lat="43.63193" lon="3.6792">
        <ele>197</ele>
        <time>2024-05-15T15:46:29+00:00</time>
      </trkpt>
      <trkpt lat="43.63211" lon="3.68057">
        <ele>184</ele>
        <time>2024-05-15T15:47:11+00:00</time>
      </trkpt>
      <trkpt lat="43.63204" lon="3.68117">
        <ele>179</ele>
        <time>2024-05-15T15:47:29+00:00</time>
      </trkpt>
      <trkpt lat="43.63194" lon="3.68154">
        <ele>176</ele>
        <time>2024-05-15T15:47:41+00:00</time>
      </trkpt>
      <trkpt lat="43.63177" lon="3.6818">
        <ele>175</ele>
        <time>2024-05-15T15:47:52+00:00</time>
      </trkpt>
      <trkpt lat="43.63123" lon="3.68242">
        <ele>167</ele>
        <time>2024-05-15T15:48:21+00:00</time>
      </trkpt>
      <trkpt lat="43.63089" lon="3.68278">
        <ele>165</ele>
        <time>2024-05-15T15:48:39+00:00</time>
      </trkpt>
      <trkpt lat="43.63068" lon="3.68289">
        <ele>164</ele>
        <time>2024-05-15T15:48:49+00:00</time>
      </trkpt>
      <trkpt lat="43.62963" lon="3.68286">
        <ele>160</ele>
        <time>2024-05-15T15:49:32+00:00</time>
      </trkpt>
      <trkpt lat="43.62946" lon="3.68276">
        <ele>160</ele>
        <time>2024-05-15T15:49:40+00:00</time>
      </trkpt>
      <trkpt lat="43.62936" lon="3.68296">
        <ele>160</ele>
        <time>2024-05-15T15:49:48+00:00</time>
      </trkpt>
      <trkpt lat="43.62966" lon="3.68468">
        <ele>153</ele>
        <time>2024-05-15T15:50:41+00:00</time>
      </trkpt>
      <trkpt lat="43.62968" lon="3.6856">
        <ele>147</ele>
        <time>2024-05-15T15:51:09+00:00</time>
      </trkpt>
      <trkpt lat="43.62965" lon="3.68619">
        <ele>144</ele>
        <time>2024-05-15T15:51:27+00:00</time>
      </trkpt>
      <trkpt lat="43.62944" lon="3.68674">
        <ele>142</ele>
        <time>2024-05-15T15:51:46+00:00</time>
      </trkpt>
      <trkpt lat="43.62932" lon="3.68683">
        <ele>141</ele>
        <time>2024-05-15T15:51:52+00:00</time>
      </trkpt>
      <trkpt lat="43.6288" lon="3.68669">
        <ele>142</ele>
        <time>2024-05-15T15:52:14+00:00</time>
      </trkpt>
      <trkpt lat="43.62781" lon="3.6865">
        <ele>142</ele>
        <time>2024-05-15T15:52:55+00:00</time>
      </trkpt>
      <trkpt lat="43.62758" lon="3.68628">
        <ele>143</ele>
        <time>2024-05-15T15:53:07+00:00</time>
      </trkpt>
      <trkpt lat="43.62743" lon="3.68623">
        <ele>143</ele>
        <time>2024-05-15T15:53:14+00:00</time>
      </trkpt>
      <trkpt lat="43.6274" lon="3.68639">
        <ele>143</ele>
        <time>2024-05-15T15:53:20+00:00</time>
      </trkpt>
      <trkpt lat="43.6274" lon="3.68684">
        <ele>141</ele>
        <time>2024-05-15T15:53:34+00:00</time>
      </trkpt>
      <trkpt lat="43.62752" lon="3.68772">
        <ele>138</ele>
        <time>2024-05-15T15:54:01+00:00</time>
      </trkpt>
      <trkpt lat="43.62732" lon="3.68791">
        <ele>138</ele>
        <time>2024-05-15T15:54:11+00:00</time>
      </trkpt>
      <trkpt lat="43.62736" lon="3.68921">
        <ele>136</ele>
        <time>2024-05-15T15:54:50+00:00</time>
      </trkpt>
      <trkpt lat="43.62741" lon="3.68967">
        <ele>136</ele>
        <time>2024-05-15T15:55:04+00:00</time>
      </trkpt>
      <trkpt lat="43.62748" lon="3.6899">
        <ele>135</ele>
        <time>2024-05-15T15:55:12+00:00</time>
      </trkpt>
      <trkpt lat="43.62728" lon="3.69011">
        <ele>135</ele>
        <time>2024-05-15T15:55:23+00:00</time>
      </trkpt>
      <trkpt lat="43.62608" lon="3.69211">
        <ele>138</ele>
        <time>2024-05-15T15:56:40+00:00</time>
      </trkpt>
      <trkpt lat="43.6261" lon="3.69235">
        <ele>138</ele>
        <time>2024-05-15T15:56:48+00:00</time>
      </trkpt>
      <trkpt lat="43.62605" lon="3.69248">
        <ele>138</ele>
        <time>2024-05-15T15:56:53+00:00</time>
      </trkpt>
      <trkpt lat="43.62565" lon="3.69255">
        <ele>139</ele>
        <time>2024-05-15T15:57:10+00:00</time>
      </trkpt>
      <trkpt lat="43.62521" lon="3.69295">
        <ele>142</ele>
        <time>2024-05-15T15:57:32+00:00</time>
      </trkpt>
      <trkpt lat="43.62463" lon="3.69362">
        <ele>146</ele>
        <time>2024-05-15T15:58:03+00:00</time>
      </trkpt>
      <trkpt lat="43.62361" lon="3.6954">
        <ele>155</ele>
        <time>2024-05-15T15:59:10+00:00</time>
      </trkpt>
      <trkpt lat="43.62346" lon="3.69558">
        <ele>156</ele>
        <time>2024-05-15T15:59:19+00:00</time>
      </trkpt>
      <trkpt lat="43.62303" lon="3.69593">
        <ele>161</ele>
        <time>2024-05-15T15:59:40+00:00</time>
      </trkpt>
      <trkpt lat="43.62276" lon="3.69624">
        <ele>162</ele>
        <time>2024-05-15T15:59:55+00:00</time>
      </trkpt>
      <trkpt lat="43.62217" lon="3.69676">
        <ele>163</ele>
        <time>2024-05-15T16:00:24+00:00</time>
      </trkpt>
      <trkpt lat="43.62139" lon="3.69723">
        <ele>167</ele>
        <time>2024-05-15T16:00:59+00:00</time>
      </trkpt>
      <trkpt lat="43.62099" lon="3.69793">
        <ele>170</ele>
        <time>2024-05-15T16:01:26+00:00</time>
      </trkpt>
      <trkpt lat="43.62077" lon="3.69843">
        <ele>172</ele>
        <time>2024-05-15T16:01:44+00:00</time>
      </trkpt>
      <trkpt lat="43.6205" lon="3.69891">
        <ele>174</ele>
        <time>2024-05-15T16:02:02+00:00</time>
      </trkpt>
      <trkpt lat="43.62034" lon="3.69938">
        <ele>174</ele>
        <time>2024-05-15T16:02:18+00:00</time>
      </trkpt>
      <trkpt lat="43.61991" lon="3.70006">
        <ele>173</ele>
        <time>2024-05-15T16:02:45+00:00</time>
      </trkpt>
      <trkpt lat="43.61994" lon="3.70038">
        <ele>174</ele>
        <time>2024-05-15T16:02:55+00:00</time>
      </trkpt>
      <trkpt lat="43.61981" lon="3.70078">
        <ele>177</ele>
        <time>2024-05-15T16:03:09+00:00</time>
      </trkpt>
      <trkpt lat="43.61969" lon="3.701">
        <ele>178</ele>
        <time>2024-05-15T16:03:18+00:00</time>
      </trkpt>
      <trkpt lat="43.61891" lon="3.70285">
        <ele>185</ele>
        <time>2024-05-15T16:04:21+00:00</time>
      </trkpt>
      <trkpt lat="43.61859" lon="3.7035">
        <ele>189</ele>
        <time>2024-05-15T16:04:45+00:00</time>
      </trkpt>
      <trkpt lat="43.61817" lon="3.70413">
        <ele>190</ele>
        <time>2024-05-15T16:05:11+00:00</time>
      </trkpt>
      <trkpt lat="43.61796" lon="3.70437">
        <ele>191</ele>
        <time>2024-05-15T16:05:23+00:00</time>
      </trkpt>
      <trkpt lat="43.61671" lon="3.70523">
        <ele>192</ele>
        <time>2024-05-15T16:06:20+00:00</time>
      </trkpt>
      <trkpt lat="43.61609" lon="3.70554">
        <ele>191</ele>
        <time>2024-05-15T16:06:47+00:00</time>
      </trkpt>
      <trkpt lat="43.6159" lon="3.70578">
        <ele>192</ele>
        <time>2024-05-15T16:06:58+00:00</time>
      </trkpt>
      <trkpt lat="43.61411" lon="3.70809">
        <ele>191</ele>
        <time>2024-05-15T16:08:38+00:00</time>
      </trkpt>
      <trkpt lat="43.61389" lon="3.70845">
        <ele>187</ele>
        <time>2024-05-15T16:08:52+00:00</time>
      </trkpt>
      <trkpt lat="43.61353" lon="3.70893">
        <ele>181</ele>
        <time>2024-05-15T16:09:13+00:00</time>
      </trkpt>
      <trkpt lat="43.61317" lon="3.70919">
        <ele>177</ele>
        <time>2024-05-15T16:09:30+00:00</time>
      </trkpt>
      <trkpt lat="43.61305" lon="3.70946">
        <ele>176</ele>
        <time>2024-05-15T16:09:40+00:00</time>
      </trkpt>
      <trkpt lat="43.61285" lon="3.70962">
        <ele>174</ele>
        <time>2024-05-15T16:09:50+00:00</time>
      </trkpt>
      <trkpt lat="43.61264" lon="3.70972">
        <ele>173</ele>
        <time>2024-05-15T16:10:00+00:00</time>
      </trkpt>
      <trkpt lat="43.61224" lon="3.70966">
        <ele>171</ele>
        <time>2024-05-15T16:10:17+00:00</time>
      </trkpt>
      <trkpt lat="43.61135" lon="3.70966">
        <ele>165</ele>
        <time>2024-05-15T16:10:53+00:00</time>
      </trkpt>
      <trkpt lat="43.60998" lon="3.7093">
        <ele>160</ele>
        <time>2024-05-15T16:11:50+00:00</time>
      </trkpt>
      <trkpt lat="43.6098" lon="3.70933">
        <ele>160</ele>
        <time>2024-05-15T16:11:58+00:00</time>
      </trkpt>
      <trkpt lat="43.6091" lon="3.70957">
        <ele>158</ele>
        <time>2024-05-15T16:12:28+00:00</time>
      </trkpt>
    </trkseg>
  </trk>
</gpx>